Time;durP1;ratioP1;P1;durP2;ratioP2;P2;SDS_P1;SDS_P2;PMS_P1;PMS_P2;Temp;Humidity;BMP_temperature;BMP_pressure;BME280_temperature;BME280_humidity;BME280_pressure;Samples;Min_cycle;Max_cycle;Signal;HPM_P1;HPM_P2
2023/03/20 00:01:04;;;;;;;;;;;;;;;;;;5059691;28;20441;-64
2023/03/20 00:03:30;;;;;;;;;;;;;;;;;;5041967;28;20016;-64
2023/03/20 00:05:56;;;;;;;;;;;;;;;;;;5050516;28;19927;-64
2023/03/20 00:08:22;;;;;;;;;;;;;;;;;;5061624;28;19924;-64
2023/03/20 00:10:48;;;;;;;;;;;;;;;;;;5049883;28;19964;-64
2023/03/20 00:13:14;;;;;;;;;;;;;;;;;;5063742;28;19920;-64
2023/03/20 00:15:40;;;;;;;;;;;;;;;;;;5056078;28;20028;-64
2023/03/20 00:18:06;;;;;;;;;;;;;;;;;;5058219;28;20338;-64
2023/03/20 00:20:32;;;;;;;;;;;;;;;;;;5038769;28;19986;-64
2023/03/20 00:22:58;;;;;;;;;;;;;;;;;;5050631;28;19974;-64
2023/03/20 00:25:24;;;;;;;;;;;;;;;;;;5050990;28;20286;-64
2023/03/20 00:27:49;;;;;;;;;;;;;;;;;;5048143;28;19921;-64
2023/03/20 00:30:15;;;;;;;;;;;;;;;;;;5052551;28;19936;-64
2023/03/20 00:32:41;;;;;;;;;;;;;;;;;;5067353;28;19931;-64
2023/03/20 00:35:07;;;;;;;;;;;;;;;;;;5063895;28;19921;-64
2023/03/20 00:37:33;;;;;;;;;;;;;;;;;;5037696;28;20282;-64
2023/03/20 00:39:59;;;;;;;;;;;;;;;;;;5060966;28;19963;-64
2023/03/20 00:42:25;;;;;;;;;;;;;;;;;;5052263;28;19924;-64
2023/03/20 00:44:52;;;;;;;;;;;;;;;;;;5038202;28;19921;-64
2023/03/20 00:47:17;;;;;;;;;;;;;;;;;;5047071;28;19925;-64
2023/03/20 00:49:44;;;;;;;;;;;;;;;;;;5063623;28;19946;-64
2023/03/20 00:52:11;;;;;;;;;;;;;;;;;;5051460;28;19954;-64
2023/03/20 00:54:37;;;;;;;;;;;;;;;;;;5045416;28;19921;-64
2023/03/20 00:57:03;;;;;;;;;;;;;;;;;;5042626;28;19932;-64
2023/03/20 00:59:29;;;;;;;;;;;;;;;;;;5052873;28;19920;-64
2023/03/20 01:01:55;;;;;;;;;;;;;;;;;;5052146;28;19925;-64
2023/03/20 01:04:21;;;;;;;;;;;;;;;;;;5033609;28;19928;-64
2023/03/20 01:06:47;;;;;;;;;;;;;;;;;;5033246;28;19921;-64
2023/03/20 01:09:13;;;;;;;;;;;;;;;;;;5032840;28;19940;-64
2023/03/20 01:11:39;;;;;;;;;;;;;;;;;;5033396;28;20011;-64
2023/03/20 01:14:05;;;;;;;;;;;;;;;;;;5048195;28;19925;-64
2023/03/20 01:16:31;;;;;;;;;;;;;;;;;;5049286;28;19927;-63
2023/03/20 01:18:56;;;;;;;;;;;;;;;;;;5052504;28;19943;-63
2023/03/20 01:21:22;;;;;;;;;;;;;;;;;;5036178;28;19920;-64
2023/03/20 01:23:48;;;;;;;;;;;;;;;;;;5032394;28;19932;-64
2023/03/20 01:26:14;;;;;;;;;;;;;;;;;;5030854;28;19928;-64
2023/03/20 01:28:40;;;;;;;;;;;;;;;;;;5053833;28;20324;-64
2023/03/20 01:31:06;;;;;;;;;;;;;;;;;;5058272;28;19987;-64
2023/03/20 01:33:32;;;;;;;;;;;;;;;;;;5054177;28;19921;-64
2023/03/20 01:35:58;;;;;;;;;;;;;;;;;;5064851;28;19931;-64
2023/03/20 01:38:24;;;;;;;;;;;;;;;;;;5042770;28;19925;-64
2023/03/20 01:40:50;;;;;;;;;;;;;;;;;;5043126;28;19920;-64
2023/03/20 01:43:16;;;;;;;;;;;;;;;;;;5058275;28;19947;-64
2023/03/20 01:45:42;;;;;;;;;;;;;;;;;;5058865;28;19925;-63
2023/03/20 01:48:07;;;;;;;;;;;;;;;;;;5061270;28;19936;-63
2023/03/20 01:50:33;;;;;;;;;;;;;;;;;;5062081;28;20017;-64
2023/03/20 01:52:59;;;;;;;;;;;;;;;;;;5053512;28;20004;-63
2023/03/20 01:55:25;;;;;;;;;;;;;;;;;;5052334;28;20011;-63
2023/03/20 01:57:51;;;;;;;;;;;;;;;;;;5054589;28;20440;-64
2023/03/20 02:00:17;;;;;;;;;;;;;;;;;;5039637;28;19921;-64
2023/03/20 02:02:43;;;;;;;;;;;;;;;;;;5066347;28;19921;-64
2023/03/20 02:05:09;;;;;;;;;;;;;;;;;;5054030;28;20571;-63
2023/03/20 02:07:35;;;;;;;;;;;;;;;;;;5051127;28;19924;-64
2023/03/20 02:10:01;;;;;;;;;;;;;;;;;;5054192;28;21078;-64
2023/03/20 02:12:27;;;;;;;;;;;;;;;;;;5052457;28;19921;-64
2023/03/20 02:14:53;;;;;;;;;;;;;;;;;;5052080;28;19974;-64
2023/03/20 02:17:19;;;;;;;;;;;;;;;;;;5054883;28;19921;-63
2023/03/20 02:19:45;;;;;;;;;;;;;;;;;;5054613;28;19927;-64
2023/03/20 02:22:11;;;;;;;;;;;;;;;;;;5056103;28;20019;-64
2023/03/20 02:24:37;;;;;;;;;;;;;;;;;;5070748;28;20415;-64
2023/03/20 02:27:02;;;;;;;;;;;;;;;;;;5072344;28;20381;-63
2023/03/20 02:29:28;;;;;;;;;;;;;;;;;;5056390;28;19925;-64
2023/03/20 02:31:55;;;;;;;;;;;;;;;;;;5063357;28;20489;-64
2023/03/20 02:34:21;;;;;;;;;;;;;;;;;;5049389;28;19928;-64
2023/03/20 02:36:47;;;;;;;;;;;;;;;;;;5048867;28;19925;-64
2023/03/20 02:39:13;;;;;;;;;;;;;;;;;;5064780;28;19927;-64
2023/03/20 02:41:40;;;;;;;;;;;;;;;;;;5072412;28;19925;-64
2023/03/20 02:44:05;;;;;;;;;;;;;;;;;;5056308;28;20358;-64
2023/03/20 02:46:31;;;;;;;;;;;;;;;;;;5061052;28;19931;-64
2023/03/20 02:48:57;;;;;;;;;;;;;;;;;;5060968;22;20472;-64
2023/03/20 02:51:23;;;;;;;;;;;;;;;;;;5034158;28;19940;-61
2023/03/20 02:53:50;;;;;;;;;;;;;;;;;;5050802;28;20432;-63
2023/03/20 02:56:16;;;;;;;;;;;;;;;;;;5035678;28;19932;-63
2023/03/20 02:58:43;;;;;;;;;;;;;;;;;;5053507;28;19921;-63
2023/03/20 03:01:10;;;;;;;;;;;;;;;;;;5052437;28;19932;-63
2023/03/20 03:03:37;;;;;;;;;;;;;;;;;;5046517;28;19948;-63
2023/03/20 03:06:03;;;;;;;;;;;;;;;;;;5050202;28;19936;-63
2023/03/20 03:08:28;;;;;;;;;;;;;;;;;;5034537;28;19920;-63
2023/03/20 03:10:54;;;;;;;;;;;;;;;;;;5053405;28;19963;-63
2023/03/20 03:13:20;;;;;;;;;;;;;;;;;;5052615;28;19921;-63
2023/03/20 03:15:46;;;;;;;;;;;;;;;;;;5034197;28;19925;-63
2023/03/20 03:18:12;;;;;;;;;;;;;;;;;;5042039;28;19921;-62
2023/03/20 03:20:38;;;;;;;;;;;;;;;;;;5027112;28;19963;-63
2023/03/20 03:23:04;;;;;;;;;;;;;;;;;;5053138;28;19971;-62
2023/03/20 03:25:30;;;;;;;;;;;;;;;;;;5052435;28;19933;-63
2023/03/20 03:27:56;;;;;;;;;;;;;;;;;;5051659;28;20374;-63
2023/03/20 03:30:22;;;;;;;;;;;;;;;;;;5046880;28;19932;-63
2023/03/20 03:32:47;;;;;;;;;;;;;;;;;;5018821;28;19927;-63
2023/03/20 03:35:13;;;;;;;;;;;;;;;;;;5034838;28;19925;-63
2023/03/20 03:37:39;;;;;;;;;;;;;;;;;;5051591;28;20342;-63
2023/03/20 03:40:05;;;;;;;;;;;;;;;;;;5048369;28;19935;-63
2023/03/20 03:42:32;;;;;;;;;;;;;;;;;;5028383;28;20471;-63
2023/03/20 03:44:58;;;;;;;;;;;;;;;;;;5052948;28;19921;-63
2023/03/20 03:47:24;;;;;;;;;;;;;;;;;;5050979;28;19929;-63
2023/03/20 03:49:50;;;;;;;;;;;;;;;;;;5033988;28;19924;-63
2023/03/20 03:52:16;;;;;;;;;;;;;;;;;;5050016;28;19924;-63
2023/03/20 03:54:42;;;;;;;;;;;;;;;;;;5045870;28;19928;-62
2023/03/20 03:57:08;;;;;;;;;;;;;;;;;;5035277;28;19921;-62
2023/03/20 03:59:34;;;;;;;;;;;;;;;;;;5034004;28;20596;-62
2023/03/20 04:02:00;;;;;;;;;;;;;;;;;;5022660;28;19925;-62
2023/03/20 04:04:26;;;;;;;;;;;;;;;;;;5035291;28;20075;-62
2023/03/20 04:06:52;;;;;;;;;;;;;;;;;;5031584;28;19920;-62
2023/03/20 04:09:17;;;;;;;;;;;;;;;;;;5035415;28;19928;-62
2023/03/20 04:11:43;;;;;;;;;;;;;;;;;;5034891;28;20405;-62
2023/03/20 04:14:10;;;;;;;;;;;;;;;;;;5053335;28;19924;-63
2023/03/20 04:16:36;;;;;;;;;;;;;;;;;;5035112;28;19924;-63
2023/03/20 04:19:02;;;;;;;;;;;;;;;;;;5052987;28;19986;-64
2023/03/20 04:21:28;;;;;;;;;;;;;;;;;;5034779;28;19922;-64
2023/03/20 04:23:54;;;;;;;;;;;;;;;;;;5049387;28;19921;-63
2023/03/20 04:26:20;;;;;;;;;;;;;;;;;;5052862;28;19931;-63
2023/03/20 04:28:46;;;;;;;;;;;;;;;;;;5049164;28;19924;-64
2023/03/20 04:31:12;;;;;;;;;;;;;;;;;;5052828;28;19921;-63
2023/03/20 04:33:38;;;;;;;;;;;;;;;;;;5044002;28;20388;-63
2023/03/20 04:36:05;;;;;;;;;;;;;;;;;;5020650;28;19929;-64
2023/03/20 04:38:31;;;;;;;;;;;;;;;;;;5050202;28;20358;-62
2023/03/20 04:40:56;;;;;;;;;;;;;;;;;;5050438;28;19971;-62
2023/03/20 04:43:22;;;;;;;;;;;;;;;;;;5060315;28;19950;-62
2023/03/20 04:45:48;;;;;;;;;;;;;;;;;;5045639;28;20012;-62
2023/03/20 04:48:14;;;;;;;;;;;;;;;;;;5049106;28;20456;-63
2023/03/20 04:50:40;;;;;;;;;;;;;;;;;;5012921;28;20716;-62
2023/03/20 04:53:06;;;;;;;;;;;;;;;;;;5012368;28;20004;-63
2023/03/20 04:55:32;;;;;;;;;;;;;;;;;;5012145;28;19925;-63
2023/03/20 04:57:58;;;;;;;;;;;;;;;;;;5030297;28;19921;-63
2023/03/20 05:00:24;;;;;;;;;;;;;;;;;;5052317;28;19925;-62
2023/03/20 05:02:50;;;;;;;;;;;;;;;;;;5029797;28;19986;-62
2023/03/20 05:05:16;;;;;;;;;;;;;;;;;;5030892;28;20000;-63
2023/03/20 05:07:42;;;;;;;;;;;;;;;;;;5032147;28;19953;-63
2023/03/20 05:10:07;;;;;;;;;;;;;;;;;;5014240;28;20524;-63
2023/03/20 05:12:33;;;;;;;;;;;;;;;;;;5027477;28;19986;-63
2023/03/20 05:14:59;;;;;;;;;;;;;;;;;;5030252;28;19921;-63
2023/03/20 05:17:25;;;;;;;;;;;;;;;;;;5030441;28;19928;-63
2023/03/20 05:19:51;;;;;;;;;;;;;;;;;;5012648;28;19956;-63
2023/03/20 05:22:17;;;;;;;;;;;;;;;;;;5028662;28;19925;-63
2023/03/20 05:24:43;;;;;;;;;;;;;;;;;;5010120;28;19932;-63
2023/03/20 05:27:09;;;;;;;;;;;;;;;;;;5012849;28;19969;-63
2023/03/20 05:29:35;;;;;;;;;;;;;;;;;;5010647;28;20424;-63
2023/03/20 05:32:01;;;;;;;;;;;;;;;;;;5022254;28;20322;-63
2023/03/20 05:34:26;;;;;;;;;;;;;;;;;;5023436;28;20374;-63
2023/03/20 05:36:52;;;;;;;;;;;;;;;;;;5028702;28;19971;-63
2023/03/20 05:39:18;;;;;;;;;;;;;;;;;;5022315;28;20452;-63
2023/03/20 05:41:44;;;;;;;;;;;;;;;;;;5026717;28;19931;-64
2023/03/20 05:44:10;;;;;;;;;;;;;;;;;;5028460;28;20590;-63
2023/03/20 05:46:36;;;;;;;;;;;;;;;;;;5001434;28;19921;-64
2023/03/20 05:49:02;;;;;;;;;;;;;;;;;;5034105;28;20011;-63
2023/03/20 05:51:28;;;;;;;;;;;;;;;;;;5048925;28;19931;-63
2023/03/20 05:53:54;;;;;;;;;;;;;;;;;;5047031;28;19921;-63
2023/03/20 05:56:20;;;;;;;;;;;;;;;;;;5029958;28;20312;-63
2023/03/20 05:58:45;;;;;;;;;;;;;;;;;;5054875;28;19925;-63
2023/03/20 06:01:15;;;;;;;;;;;;;;;;;;5054475;28;19925;-64
2023/03/20 06:03:40;;;;;;;;;;;;;;;;;;5052958;28;19927;-63
2023/03/20 06:06:06;;;;;;;;;;;;;;;;;;5054529;28;20015;-63
2023/03/20 06:08:35;;;;;;;;;;;;;;;;;;5050469;28;20498;-64
2023/03/20 06:11:01;;;;;;;;;;;;;;;;;;5049777;28;20019;-63
2023/03/20 06:13:27;;;;;;;;;;;;;;;;;;5050546;28;19964;-64
2023/03/20 06:15:52;;;;;;;;;;;;;;;;;;5053716;28;20294;-64
2023/03/20 06:18:18;;;;;;;;;;;;;;;;;;5056172;28;20283;-63
2023/03/20 06:20:44;;;;;;;;;;;;;;;;;;5051377;28;19925;-63
2023/03/20 06:23:10;;;;;;;;;;;;;;;;;;5032646;28;19931;-63
2023/03/20 06:25:37;;;;;;;;;;;;;;;;;;5052734;28;19920;-63
2023/03/20 06:28:03;;;;;;;;;;;;;;;;;;5055120;28;19966;-65
2023/03/20 06:30:29;;;;;;;;;;;;;;;;;;5053824;28;20281;-63
2023/03/20 06:32:55;;;;;;;;;;;;;;;;;;5060040;28;20096;-63
2023/03/20 06:35:21;;;;;;;;;;;;;;;;;;5020131;28;19999;-65
2023/03/20 06:37:47;;;;;;;;;;;;;;;;;;5069267;28;19932;-63
2023/03/20 06:40:12;;;;;;;;;;;;;;;;;;5054701;28;19920;-63
2023/03/20 06:42:38;;;;;;;;;;;;;;;;;;5044761;28;19921;-63
2023/03/20 06:45:05;;;;;;;;;;;;;;;;;;5036928;28;19949;-64
2023/03/20 06:47:31;;;;;;;;;;;;;;;;;;5071178;28;19971;-63
2023/03/20 06:49:57;;;;;;;;;;;;;;;;;;5071882;28;20005;-63
2023/03/20 06:52:24;;;;;;;;;;;;;;;;;;5054924;28;19924;-63
2023/03/20 06:54:50;;;;;;;;;;;;;;;;;;5073793;28;19920;-63
2023/03/20 06:57:17;;;;;;;;;;;;;;;;;;5073418;28;19989;-64
2023/03/20 06:59:42;;;;;;;;;;;;;;;;;;5072796;28;19928;-64
2023/03/20 07:02:08;;;;;;;;;;;;;;;;;;5071451;28;19921;-64
2023/03/20 07:04:35;;;;;;;;;;;;;;;;;;5038754;28;19920;-63
2023/03/20 07:07:01;;;;;;;;;;;;;;;;;;5055442;28;19975;-63
2023/03/20 07:09:27;;;;;;;;;;;;;;;;;;5053192;28;19956;-63
2023/03/20 07:11:53;;;;;;;;;;;;;;;;;;5072628;28;20436;-63
2023/03/20 07:14:19;;;;;;;;;;;;;;;;;;5063419;28;19927;-63
2023/03/20 07:16:45;;;;;;;;;;;;;;;;;;5073446;28;19924;-63
2023/03/20 07:19:12;;;;;;;;;;;;;;;;;;5066857;28;19971;-63
2023/03/20 07:21:38;;;;;;;;;;;;;;;;;;5071678;28;19932;-63
2023/03/20 07:24:05;;;;;;;;;;;;;;;;;;5072993;28;20003;-63
2023/03/20 07:26:31;;;;;;;;;;;;;;;;;;5031806;28;19932;-63
2023/03/20 07:28:57;;;;;;;;;;;;;;;;;;5069483;28;19924;-63
2023/03/20 07:31:23;;;;;;;;;;;;;;;;;;5072711;28;19924;-63
2023/03/20 07:33:49;;;;;;;;;;;;;;;;;;5051107;28;19920;-63
2023/03/20 07:36:15;;;;;;;;;;;;;;;;;;5073726;28;19932;-63
2023/03/20 07:38:41;;;;;;;;;;;;;;;;;;5062739;28;19928;-63
2023/03/20 07:41:06;;;;;;;;;;;;;;;;;;5052954;28;19978;-63
2023/03/20 07:43:32;;;;;;;;;;;;;;;;;;5070128;28;20022;-63
2023/03/20 07:45:58;;;;;;;;;;;;;;;;;;5071646;28;19925;-63
2023/03/20 07:48:24;;;;;;;;;;;;;;;;;;5066086;28;19925;-63
2023/03/20 07:50:50;;;;;;;;;;;;;;;;;;5070970;28;19932;-63
2023/03/20 07:53:16;;;;;;;;;;;;;;;;;;5071785;28;20277;-63
2023/03/20 07:55:42;;;;;;;;;;;;;;;;;;5070894;28;19931;-63
2023/03/20 07:58:08;;;;;;;;;;;;;;;;;;5075103;28;19927;-63
2023/03/20 08:00:34;;;;;;;;;;;;;;;;;;5056568;28;19928;-63
2023/03/20 08:02:59;;;;;;;;;;;;;;;;;;5070199;28;19952;-63
2023/03/20 08:05:26;;;;;;;;;;;;;;;;;;5079047;28;19977;-63
2023/03/20 08:07:52;;;;;;;;;;;;;;;;;;5082475;28;19924;-63
2023/03/20 08:10:18;;;;;;;;;;;;;;;;;;5053679;28;20381;-63
2023/03/20 08:12:44;;;;;;;;;;;;;;;;;;5071883;28;19929;-63
2023/03/20 08:15:10;;;;;;;;;;;;;;;;;;5072981;28;19924;-63
2023/03/20 08:17:36;;;;;;;;;;;;;;;;;;5056693;28;19921;-63
2023/03/20 08:20:02;;;;;;;;;;;;;;;;;;5052751;28;19921;-64
2023/03/20 08:22:28;;;;;;;;;;;;;;;;;;5052974;28;19931;-63
2023/03/20 08:24:54;;;;;;;;;;;;;;;;;;5052854;28;20015;-63
2023/03/20 08:27:20;;;;;;;;;;;;;;;;;;5052656;28;19966;-63
2023/03/20 08:29:46;;;;;;;;;;;;;;;;;;5052420;28;19924;-64
2023/03/20 08:32:11;;;;;;;;;;;;;;;;;;5052574;28;19933;-63
2023/03/20 08:34:37;;;;;;;;;;;;;;;;;;5067007;28;19959;-63
2023/03/20 08:37:03;;;;;;;;;;;;;;;;;;5072579;28;19933;-64
2023/03/20 08:39:29;;;;;;;;;;;;;;;;;;5072528;28;19924;-64
2023/03/20 08:41:55;;;;;;;;;;;;;;;;;;5070854;28;19942;-64
2023/03/20 08:44:21;;;;;;;;;;;;;;;;;;5072452;28;20054;-63
2023/03/20 08:46:47;;;;;;;;;;;;;;;;;;5072280;28;20577;-63
2023/03/20 08:49:13;;;;;;;;;;;;;;;;;;5071838;28;19932;-63
2023/03/20 08:51:39;;;;;;;;;;;;;;;;;;5072273;28;19972;-63
2023/03/20 08:54:05;;;;;;;;;;;;;;;;;;5072224;28;19959;-63
2023/03/20 08:56:31;;;;;;;;;;;;;;;;;;5072401;28;19920;-63
2023/03/20 08:58:57;;;;;;;;;;;;;;;;;;5070058;28;20006;-63
2023/03/20 09:01:23;;;;;;;;;;;;;;;;;;5070907;28;19946;-63
2023/03/20 09:03:49;;;;;;;;;;;;;;;;;;5068245;28;20317;-63
2023/03/20 09:06:14;;;;;;;;;;;;;;;;;;5067243;28;20007;-63
2023/03/20 09:08:40;;;;;;;;;;;;;;;;;;5050839;28;19935;-63
2023/03/20 09:11:07;;;;;;;;;;;;;;;;;;5072013;28;19964;-63
2023/03/20 09:13:32;;;;;;;;;;;;;;;;;;5035566;28;19967;-63
2023/03/20 09:15:58;;;;;;;;;;;;;;;;;;5060713;28;19951;-63
2023/03/20 09:18:24;;;;;;;;;;;;;;;;;;5050361;28;19928;-64
2023/03/20 09:20:50;;;;;;;;;;;;;;;;;;5071956;28;19921;-62
2023/03/20 09:23:16;;;;;;;;;;;;;;;;;;5053767;28;19920;-64
2023/03/20 09:25:44;;;;;;;;;;;;;;;;;;5071198;28;21349;-64
2023/03/20 09:28:10;;;;;;;;;;;;;;;;;;5071676;28;20019;-62
2023/03/20 09:30:36;;;;;;;;;;;;;;;;;;5071639;28;19955;-64
2023/03/20 09:33:02;;;;;;;;;;;;;;;;;;5071771;28;19920;-64
2023/03/20 09:35:28;;;;;;;;;;;;;;;;;;5070605;28;19920;-63
2023/03/20 09:37:55;;;;;;;;;;;;;;;;;;5071810;28;20350;-63
2023/03/20 09:40:21;;;;;;;;;;;;;;;;;;5072032;28;19955;-63
2023/03/20 09:42:47;;;;;;;;;;;;;;;;;;5071643;28;20038;-62
2023/03/20 09:45:13;;;;;;;;;;;;;;;;;;5053878;28;20023;-63
2023/03/20 09:47:39;;;;;;;;;;;;;;;;;;5071499;28;19928;-63
2023/03/20 09:50:05;;;;;;;;;;;;;;;;;;5071432;28;20011;-63
2023/03/20 09:52:31;;;;;;;;;;;;;;;;;;5069996;28;20484;-63
2023/03/20 09:54:57;;;;;;;;;;;;;;;;;;5071370;28;19924;-63
2023/03/20 09:57:23;;;;;;;;;;;;;;;;;;5071457;28;19978;-63
2023/03/20 09:59:49;;;;;;;;;;;;;;;;;;5071663;28;20426;-63
2023/03/20 10:02:15;;;;;;;;;;;;;;;;;;5075548;28;19943;-63
2023/03/20 10:04:41;;;;;;;;;;;;;;;;;;5075612;28;19931;-63
2023/03/20 10:07:07;;;;;;;;;;;;;;;;;;5075383;28;20281;-63
2023/03/20 10:09:33;;;;;;;;;;;;;;;;;;5062679;28;20703;-63
2023/03/20 10:11:59;;;;;;;;;;;;;;;;;;5037080;28;19932;-63
2023/03/20 10:14:25;;;;;;;;;;;;;;;;;;5055034;28;20450;-64
2023/03/20 10:16:51;;;;;;;;;;;;;;;;;;5037280;28;19920;-64
2023/03/20 10:19:17;;;;;;;;;;;;;;;;;;5037383;28;19928;-64
2023/03/20 10:21:43;;;;;;;;;;;;;;;;;;5055033;28;19965;-62
2023/03/20 10:24:10;;;;;;;;;;;;;;;;;;5064875;28;19924;-63
2023/03/20 10:26:36;;;;;;;;;;;;;;;;;;5075208;28;20011;-63
2023/03/20 10:29:02;;;;;;;;;;;;;;;;;;5074957;28;20023;-63
2023/03/20 10:31:28;;;;;;;;;;;;;;;;;;5074820;28;19921;-63
2023/03/20 10:33:54;;;;;;;;;;;;;;;;;;5074940;28;19990;-63
2023/03/20 10:36:20;;;;;;;;;;;;;;;;;;5056825;28;19922;-63
2023/03/20 10:38:46;;;;;;;;;;;;;;;;;;5056651;28;19951;-63
2023/03/20 10:41:13;;;;;;;;;;;;;;;;;;5073753;28;19927;-63
2023/03/20 10:43:38;;;;;;;;;;;;;;;;;;5056295;28;19921;-63
2023/03/20 10:46:04;;;;;;;;;;;;;;;;;;5039914;28;19924;-63
2023/03/20 10:48:30;;;;;;;;;;;;;;;;;;5054920;28;19928;-63
2023/03/20 10:50:56;;;;;;;;;;;;;;;;;;5073828;28;19924;-63
2023/03/20 10:53:23;;;;;;;;;;;;;;;;;;5089688;28;20361;-62
2023/03/20 10:55:49;;;;;;;;;;;;;;;;;;5042713;28;19928;-63
2023/03/20 10:58:15;;;;;;;;;;;;;;;;;;5052264;28;19924;-63
2023/03/20 11:00:40;;;;;;;;;;;;;;;;;;5073359;28;19924;-63
2023/03/20 11:03:07;;;;;;;;;;;;;;;;;;5055562;28;19942;-63
2023/03/20 11:05:33;;;;;;;;;;;;;;;;;;5073493;28;19930;-63
2023/03/20 11:07:58;;;;;;;;;;;;;;;;;;5055111;28;20003;-62
2023/03/20 11:10:24;;;;;;;;;;;;;;;;;;5055303;28;19927;-62
2023/03/20 11:12:51;;;;;;;;;;;;;;;;;;5037052;28;19921;-63
2023/03/20 11:15:17;;;;;;;;;;;;;;;;;;5072179;28;20499;-63
2023/03/20 11:17:43;;;;;;;;;;;;;;;;;;5038868;28;19964;-63
2023/03/20 11:20:08;;;;;;;;;;;;;;;;;;5054632;28;20015;-64
2023/03/20 11:22:34;;;;;;;;;;;;;;;;;;5071630;28;20282;-63
2023/03/20 11:25:01;;;;;;;;;;;;;;;;;;5066615;28;20560;-63
2023/03/20 11:27:27;;;;;;;;;;;;;;;;;;5074349;28;19924;-63
2023/03/20 11:29:53;;;;;;;;;;;;;;;;;;5065589;28;19928;-64
2023/03/20 11:32:19;;;;;;;;;;;;;;;;;;5068511;28;19924;-63
2023/03/20 11:34:45;;;;;;;;;;;;;;;;;;5074100;28;19930;-63
2023/03/20 11:37:11;;;;;;;;;;;;;;;;;;5072791;28;19999;-63
2023/03/20 11:39:38;;;;;;;;;;;;;;;;;;5053537;28;20020;-63
2023/03/20 11:42:04;;;;;;;;;;;;;;;;;;5058238;28;19928;-63
2023/03/20 11:44:30;;;;;;;;;;;;;;;;;;5072796;28;19942;-63
2023/03/20 11:46:56;;;;;;;;;;;;;;;;;;5065279;28;19939;-63
2023/03/20 11:49:23;;;;;;;;;;;;;;;;;;5068698;28;20385;-62
2023/03/20 11:51:49;;;;;;;;;;;;;;;;;;5053141;28;20015;-62
2023/03/20 11:54:15;;;;;;;;;;;;;;;;;;5072349;28;20059;-63
2023/03/20 11:56:41;;;;;;;;;;;;;;;;;;5061504;28;19932;-63
2023/03/20 11:59:07;;;;;;;;;;;;;;;;;;5054861;28;20570;-63
2023/03/20 12:01:33;;;;;;;;;;;;;;;;;;5048882;28;19968;-63
2023/03/20 12:03:59;;;;;;;;;;;;;;;;;;5067767;28;19954;-63
2023/03/20 12:06:24;;;;;;;;;;;;;;;;;;5058592;28;19920;-63
2023/03/20 12:08:50;;;;;;;;;;;;;;;;;;5063378;28;19931;-63
2023/03/20 12:11:16;;;;;;;;;;;;;;;;;;5073293;28;19924;-62
2023/03/20 12:13:43;;;;;;;;;;;;;;;;;;5054992;28;20396;-62
2023/03/20 12:16:09;;;;;;;;;;;;;;;;;;5038379;28;19927;-62
2023/03/20 12:18:35;;;;;;;;;;;;;;;;;;5073141;28;19924;-63
2023/03/20 12:21:01;;;;;;;;;;;;;;;;;;5071733;28;19924;-63
2023/03/20 12:23:27;;;;;;;;;;;;;;;;;;5072589;28;20320;-62
2023/03/20 12:25:53;;;;;;;;;;;;;;;;;;5072707;28;20297;-63
2023/03/20 12:28:19;;;;;;;;;;;;;;;;;;5054950;28;20274;-63
2023/03/20 12:30:45;;;;;;;;;;;;;;;;;;5072737;28;19935;-64
2023/03/20 12:33:11;;;;;;;;;;;;;;;;;;5072701;28;19943;-64
2023/03/20 12:35:37;;;;;;;;;;;;;;;;;;5072701;28;20062;-64
2023/03/20 12:38:03;;;;;;;;;;;;;;;;;;5071011;28;20338;-65
2023/03/20 12:40:29;;;;;;;;;;;;;;;;;;5054447;28;20380;-65
2023/03/20 12:42:55;;;;;;;;;;;;;;;;;;5072634;28;19921;-64
2023/03/20 12:45:21;;;;;;;;;;;;;;;;;;5054246;28;19974;-64
2023/03/20 12:47:47;;;;;;;;;;;;;;;;;;5054588;28;19924;-64
2023/03/20 12:50:13;;;;;;;;;;;;;;;;;;5071995;28;19928;-64
2023/03/20 12:52:39;;;;;;;;;;;;;;;;;;5070879;28;20339;-65
2023/03/20 12:55:05;;;;;;;;;;;;;;;;;;5072340;28;19932;-65
2023/03/20 12:57:31;;;;;;;;;;;;;;;;;;5072346;28;19950;-65
2023/03/20 12:59:57;;;;;;;;;;;;;;;;;;5072101;28;19925;-65
2023/03/20 13:02:23;;;;;;;;;;;;;;;;;;5054378;28;19928;-64
2023/03/20 13:04:48;;;;;;;;;;;;;;;;;;5072242;28;19929;-65
2023/03/20 13:07:15;;;;;;;;;;;;;;;;;;5072181;28;20007;-65
2023/03/20 13:09:41;;;;;;;;;;;;;;;;;;5070678;28;19928;-65
2023/03/20 13:12:07;;;;;;;;;;;;;;;;;;5053990;28;19931;-65
2023/03/20 13:14:32;;;;;;;;;;;;;;;;;;5050530;28;20075;-65
2023/03/20 13:16:58;;;;;;;;;;;;;;;;;;5054137;28;19928;-64
2023/03/20 13:19:24;;;;;;;;;;;;;;;;;;5072123;28;19920;-65
2023/03/20 13:21:54;;;;;;;;;;;;;;;;;;5053737;28;20349;-65
2023/03/20 13:24:20;;;;;;;;;;;;;;;;;;5072019;28;19920;-65
2023/03/20 13:26:46;;;;;;;;;;;;;;;;;;5071806;28;19921;-65
2023/03/20 13:29:11;;;;;;;;;;;;;;;;;;5070560;28;19929;-67
2023/03/20 13:31:37;;;;;;;;;;;;;;;;;;5071669;28;19931;-67
2023/03/20 13:34:03;;;;;;;;;;;;;;;;;;5053434;28;20365;-67
2023/03/20 13:36:29;;;;;;;;;;;;;;;;;;5070787;28;19920;-67
2023/03/20 13:38:55;;;;;;;;;;;;;;;;;;5053523;28;19955;-67
2023/03/20 13:41:21;;;;;;;;;;;;;;;;;;5071701;28;19956;-67
2023/03/20 13:43:47;;;;;;;;;;;;;;;;;;5071843;28;20409;-67
2023/03/20 13:46:13;;;;;;;;;;;;;;;;;;5070306;28;19928;-67
2023/03/20 13:48:39;;;;;;;;;;;;;;;;;;5036612;28;19928;-67
2023/03/20 13:51:05;;;;;;;;;;;;;;;;;;5069910;28;20255;-68
2023/03/20 13:53:31;;;;;;;;;;;;;;;;;;5052040;28;20610;-66
2023/03/20 13:55:57;;;;;;;;;;;;;;;;;;5071349;28;19924;-67
2023/03/20 13:58:23;;;;;;;;;;;;;;;;;;5071500;28;20030;-66
2023/03/20 14:00:49;;;;;;;;;;;;;;;;;;5069679;28;19928;-66
2023/03/20 14:03:15;;;;;;;;;;;;;;;;;;5071499;28;19959;-66
2023/03/20 14:05:41;;;;;;;;;;;;;;;;;;5070028;28;20476;-66
2023/03/20 14:08:07;;;;;;;;;;;;;;;;;;5083805;28;20409;-67
2023/03/20 14:10:33;;;;;;;;;;;;;;;;;;5089037;28;19924;-66
2023/03/20 14:12:59;;;;;;;;;;;;;;;;;;5067007;28;19927;-66
2023/03/20 14:15:25;;;;;;;;;;;;;;;;;;5045824;28;19924;-66
2023/03/20 14:17:51;;;;;;;;;;;;;;;;;;5063890;28;20293;-66
2023/03/20 14:20:17;;;;;;;;;;;;;;;;;;5070038;28;19927;-66
2023/03/20 14:22:44;;;;;;;;;;;;;;;;;;5070565;28;19968;-66
2023/03/20 14:25:10;;;;;;;;;;;;;;;;;;5069367;28;20301;-67
2023/03/20 14:27:36;;;;;;;;;;;;;;;;;;5068491;28;19927;-67
2023/03/20 14:30:02;;;;;;;;;;;;;;;;;;5047498;28;19924;-67
2023/03/20 14:32:27;;;;;;;;;;;;;;;;;;5063710;28;20451;-66
2023/03/20 14:34:53;;;;;;;;;;;;;;;;;;5070216;28;19928;-66
2023/03/20 14:37:19;;;;;;;;;;;;;;;;;;5052996;28;20001;-67
2023/03/20 14:39:45;;;;;;;;;;;;;;;;;;5052610;28;20304;-67
2023/03/20 14:42:11;;;;;;;;;;;;;;;;;;5049129;28;20007;-67
2023/03/20 14:44:37;;;;;;;;;;;;;;;;;;5064527;28;19924;-66
2023/03/20 14:47:03;;;;;;;;;;;;;;;;;;5060957;28;19932;-67
2023/03/20 14:49:29;;;;;;;;;;;;;;;;;;5052898;28;19929;-67
2023/03/20 14:51:55;;;;;;;;;;;;;;;;;;5072322;28;19947;-67
2023/03/20 14:54:21;;;;;;;;;;;;;;;;;;5070528;28;19955;-66
2023/03/20 14:56:47;;;;;;;;;;;;;;;;;;5048046;28;19951;-67
2023/03/20 14:59:13;;;;;;;;;;;;;;;;;;5067048;28;20316;-67
2023/03/20 15:01:39;;;;;;;;;;;;;;;;;;5052116;28;19924;-67
2023/03/20 15:04:05;;;;;;;;;;;;;;;;;;5067676;22;19935;-63
2023/03/20 15:06:31;;;;;;;;;;;;;;;;;;5076280;28;19924;-63
2023/03/20 15:08:57;;;;;;;;;;;;;;;;;;5074469;28;19955;-63
2023/03/20 15:11:23;;;;;;;;;;;;;;;;;;5054329;28;19924;-63
2023/03/20 15:13:49;;;;;;;;;;;;;;;;;;5066137;28;19999;-63
2023/03/20 15:16:15;;;;;;;;;;;;;;;;;;5068028;28;20346;-63
2023/03/20 15:18:41;;;;;;;;;;;;;;;;;;5072430;28;19920;-63
2023/03/20 15:21:06;;;;;;;;;;;;;;;;;;5069433;28;20418;-64
2023/03/20 15:23:32;;;;;;;;;;;;;;;;;;5069714;28;19959;-64
2023/03/20 15:25:58;;;;;;;;;;;;;;;;;;5070358;28;19992;-64
2023/03/20 15:28:24;;;;;;;;;;;;;;;;;;5071203;28;19933;-64
2023/03/20 15:30:52;;;;;;;;;;;;;;;;;;5070037;28;20325;-64
2023/03/20 15:33:18;;;;;;;;;;;;;;;;;;5071320;28;19928;-63
2023/03/20 15:35:44;;;;;;;;;;;;;;;;;;5070860;28;19979;-63
2023/03/20 15:38:10;;;;;;;;;;;;;;;;;;5067587;28;19939;-63
2023/03/20 15:40:36;;;;;;;;;;;;;;;;;;5072358;28;19925;-63
2023/03/20 15:43:02;;;;;;;;;;;;;;;;;;5073165;28;19943;-63
2023/03/20 15:45:28;;;;;;;;;;;;;;;;;;5070622;28;19928;-63
2023/03/20 15:47:54;;;;;;;;;;;;;;;;;;5069743;28;20254;-64
2023/03/20 15:50:20;;;;;;;;;;;;;;;;;;5070766;28;19932;-63
2023/03/20 15:52:51;;;;;;;;;;;;;;;;;;5070901;28;20301;-63
2023/03/20 15:55:18;;;;;;;;;;;;;;;;;;5070020;28;20041;-63
2023/03/20 15:57:46;;;;;;;;;;;;;;;;;;5069252;28;19971;-63
2023/03/20 16:00:11;;;;;;;;;;;;;;;;;;5071379;28;19921;-63
2023/03/20 16:02:37;;;;;;;;;;;;;;;;;;5070789;28;19932;-63
2023/03/20 16:05:03;;;;;;;;;;;;;;;;;;5065000;28;20367;-63
2023/03/20 16:07:30;;;;;;;;;;;;;;;;;;5061887;28;19927;-63
2023/03/20 16:09:56;;;;;;;;;;;;;;;;;;5070872;28;19928;-63
2023/03/20 16:12:22;;;;;;;;;;;;;;;;;;5069251;28;20293;-63
2023/03/20 16:14:48;;;;;;;;;;;;;;;;;;5067671;28;19920;-63
2023/03/20 16:17:14;;;;;;;;;;;;;;;;;;5066364;28;19932;-63
2023/03/20 16:19:40;;;;;;;;;;;;;;;;;;5071437;28;19921;-63
2023/03/20 16:22:06;;;;;;;;;;;;;;;;;;5065202;28;19999;-64
2023/03/20 16:24:32;;;;;;;;;;;;;;;;;;5071116;28;20107;-63
2023/03/20 16:26:58;;;;;;;;;;;;;;;;;;5072029;28;20388;-64
2023/03/20 16:29:24;;;;;;;;;;;;;;;;;;5072662;28;19932;-63
2023/03/20 16:31:49;;;;;;;;;;;;;;;;;;5071618;28;19943;-64
2023/03/20 16:34:16;;;;;;;;;;;;;;;;;;5072122;28;19974;-64
2023/03/20 16:36:42;;;;;;;;;;;;;;;;;;5072999;28;19920;-64